Time;durP1;ratioP1;P1;durP2;ratioP2;P2;SDS_P1;SDS_P2;PMS_P1;PMS_P2;Temp;Humidity;BMP_temperature;BMP_pressure;BME280_temperature;BME280_humidity;BME280_pressure;Samples;Min_cycle;Max_cycle;Signal;HPM_P1;HPM_P2
2022/06/02 00:02:08;;;;;;;16.63;7.53;;;;;;;13.49;80.30;100626.02;5080877;57;1138980;-71
2022/06/02 00:07:24;;;;;;;7.43;5.63;;;;;;;13.58;80.05;100626.55;5016676;58;1141240;-72
2022/06/02 00:12:49;;;;;;;3.53;3.10;;;;;;;13.59;80.10;100625.09;5073042;57;1139072;-71
2022/06/02 00:17:59;;;;;;;;;;;;;;;13.57;80.18;100612.42;5131223;57;1139078;-71
2022/06/02 00:23:44;;;;;;;5.60;3.27;;;;;;;13.60;80.33;100621.42;5164433;57;974255;-72
2022/06/02 00:29:12;;;;;;;3.47;3.10;;;;;;;13.44;79.57;100629.09;5118841;56;1134800;-71
2022/06/02 00:34:28;;;;;;;2.90;2.70;;;;;;;13.20;79.53;100641.36;5124524;57;1136915;-71
2022/06/02 00:39:36;;;;;;;4.30;3.30;;;;;;;13.13;80.14;100645.98;5124610;57;1134859;-72
2022/06/02 00:44:58;;;;;;;6.73;3.73;;;;;;;13.21;80.80;100651.01;5185992;56;1134828;-71
2022/06/02 00:50:15;;;;;;;10.63;3.77;;;;;;;13.20;80.47;100664.42;5229173;56;1139014;-72
2022/06/02 01:00:58;;;;;;;5.47;4.72;;;;;;;13.32;81.69;100663.34;5224032;56;1138983;-71
2022/06/02 01:06:15;;;;;;;6.67;5.17;;;;;;;13.31;81.38;100667.82;5223951;56;1138989;-71
2022/06/02 01:12:04;;;;;;;9.40;3.60;;;;;;;13.22;81.17;100658.00;5226605;56;1138959;-71
2022/06/02 01:17:34;;;;;;;6.03;3.77;;;;;;;13.29;81.81;100649.03;5228754;56;1139013;-71
2022/06/02 01:23:02;;;;;;;4.50;3.80;;;;;;;13.36;82.35;100647.02;5228792;56;1139087;-72
2022/06/02 01:28:41;;;;;;;4.67;3.40;;;;;;;13.34;82.37;100643.66;5161943;56;1139079;-72
2022/06/02 01:34:13;;;;;;;5.93;3.40;;;;;;;13.29;82.03;100641.06;5223954;56;1136905;-72
2022/06/02 01:39:32;;;;;;;3.40;3.10;;;;;;;13.14;81.89;100633.87;5074687;57;1136894;-72
2022/06/02 01:44:46;;;;;;;5.50;2.70;;;;;;;13.06;81.82;100627.56;5199981;57;1137011;-71
2022/06/02 01:50:17;;;;;;;6.17;4.47;;;;;;;13.06;82.33;100641.67;5200425;57;1134858;-71
2022/06/02 01:55:49;;;;;;;3.83;2.70;;;;;;;13.10;82.64;100645.76;5152674;56;1138965;-71
2022/06/02 02:01:21;;;;;;;3.33;2.93;;;;;;;13.02;82.15;100656.17;5031408;58;1139412;-72
2022/06/02 02:07:10;;;;;;;5.10;3.97;;;;;;;12.93;82.04;100661.80;5211361;56;1138982;-71
2022/06/02 02:12:23;;;;;;;3.17;2.80;;;;;;;12.86;82.50;100653.14;5004144;58;1138930;-72
2022/06/02 02:17:54;;;;;;;2.80;2.60;;;;;;;12.86;82.41;100653.14;5097150;57;1138968;-72
2022/06/02 02:23:11;;;;;;;6.27;3.43;;;;;;;12.77;81.58;100670.70;5065784;57;1139098;-72
2022/06/02 02:28:41;;;;;;;4.23;3.83;;;;;;;12.63;81.97;100653.30;5132365;56;1139131;-72
2022/06/02 02:33:58;;;;;;;3.53;3.23;;;;;;;12.64;82.46;100652.81;5042026;58;1136915;-71
2022/06/02 02:39:35;;;;;;;3.30;3.10;;;;;;;12.37;81.55;100666.57;4988457;58;1137155;-72
2022/06/02 02:45:08;;;;;;;4.57;4.17;;;;;;;12.27;82.31;100666.47;4923568;59;1136983;-72
2022/06/02 02:50:40;;;;;;;5.13;3.43;;;;;;;12.22;82.17;100685.88;5142591;57;1139232;-72
2022/06/02 02:56:14;;;;;;;4.53;3.40;;;;;;;12.26;83.43;100684.67;5137590;57;1138852;-72
2022/06/02 03:01:40;;;;;;;8.97;4.33;;;;;;;12.26;83.43;100684.67;5141260;57;1139243;-71
2022/06/02 03:06:47;;;;;;;4.90;3.98;;;;;;;12.25;83.56;100679.01;5142408;57;1139261;-71
2022/06/02 03:12:01;;;;;;;5.00;4.50;;;;;;;12.29;84.29;100676.47;5139206;57;1139025;-71
2022/06/02 03:17:16;;;;;;;4.65;3.95;;;;;;;12.21;83.87;100690.86;5139267;57;1138939;-72
2022/06/02 03:23:06;;;;;;;4.90;3.70;;;;;;;12.08;84.58;100707.38;5104721;57;1139227;-72
2022/06/02 03:28:23;;;;;;;5.17;3.72;;;;;;;11.87;85.22;100730.32;5113533;57;1139079;-72
2022/06/02 03:34:00;;;;;;;4.30;3.77;;;;;;;11.69;86.22;100730.41;5137837;57;1139017;-72
2022/06/02 03:39:28;;;;;;;6.37;4.50;;;;;;;11.70;86.95;100726.80;5137956;57;1137087;-72
2022/06/02 03:44:41;;;;;;;4.23;3.87;;;;;;;11.80;87.37;100719.83;5185891;56;1136859;-72
2022/06/02 03:50:15;;;;;;;4.03;3.63;;;;;;;11.94;87.61;100730.17;5226950;56;1136987;-72
2022/06/02 03:55:40;;;;;;;8.23;4.33;;;;;;;12.02;87.83;100730.42;5227547;56;1135107;-72
2022/06/02 04:00:56;;;;;;;7.37;3.97;;;;;;;12.09;88.28;100738.22;5227698;56;1138972;-72
2022/06/02 04:06:30;;;;;;;3.97;3.57;;;;;;;12.05;88.10;100748.73;5196714;56;1139292;-72
2022/06/02 04:17:26;;;;;;;4.30;4.00;;;;;;;11.93;88.32;100752.34;5154788;56;1138987;-72
2022/06/02 04:23:11;;;;;;;4.73;3.97;;;;;;;11.95;88.66;100751.74;4970207;58;1138989;-72
2022/06/02 04:29:00;;;;;;;4.93;3.93;;;;;;;11.95;88.91;100768.48;5044967;58;1138965;-72
2022/06/02 04:34:32;;;;;;;4.00;3.53;;;;;;;11.91;89.15;100772.37;5113016;57;1137092;-72
2022/06/02 04:39:59;;;;;;;5.13;3.63;;;;;;;11.86;89.78;100765.25;5111124;57;1136947;-72
2022/06/02 04:45:29;;;;;;;5.43;4.00;;;;;;;11.91;90.08;100805.98;5140067;57;1137202;-72
2022/06/02 04:50:52;;;;;;;4.55;3.87;;;;;;;11.86;89.95;100807.66;5173216;56;1138921;-73
2022/06/02 04:56:26;;;;;;;6.67;5.20;;;;;;;11.83;90.40;100804.39;5134123;55;1139000;-72
2022/06/02 05:01:46;;;;;;;4.60;4.20;;;;;;;11.79;90.66;100813.54;5268109;55;1139037;-72
2022/06/02 05:07:02;;;;;;;5.00;3.70;;;;;;;11.76;91.82;100813.33;5154370;57;1139013;-73
2022/06/02 05:12:24;;;;;;;5.50;3.57;;;;;;;11.82;92.18;100823.43;5220847;56;1139171;-72
2022/06/02 05:17:43;;;;;;;4.37;3.97;;;;;;;11.85;92.73;100827.17;5240008;56;1138949;-72
2022/06/02 05:23:31;;;;;;;6.63;3.97;;;;;;;11.86;92.64;100828.86;5242460;56;1139081;-73
2022/06/02 05:28:56;;;;;;;4.97;3.83;;;;;;;11.96;92.52;100825.84;5242111;55;1139062;-72
2022/06/02 05:34:48;;;;;;;3.73;3.43;;;;;;;12.01;93.02;100826.81;5182755;56;1139139;-72
2022/06/02 05:40:23;;;;;;;4.43;4.03;;;;;;;12.04;93.54;100838.52;5227710;56;1136976;-71
2022/06/02 05:45:55;;;;;;;3.25;3.05;;;;;;;12.04;93.20;100843.81;5283772;55;1137182;-72
2022/06/02 05:51:43;;;;;;;5.15;3.90;;;;;;;12.18;94.86;100840.07;5300760;55;1138986;-71
2022/06/02 05:57:38;;;;;;;6.00;3.90;;;;;;;12.24;94.29;100831.13;5173963;56;1139338;-72
2022/06/02 06:03:06;;;;;;;6.67;4.50;;;;;;;12.40;94.21;100853.77;5148413;56;1138917;-73
2022/06/02 06:08:31;;;;;;;8.07;3.87;;;;;;;12.56;94.50;100860.39;5193371;56;1139081;-72
2022/06/02 06:14:01;;;;;;;4.40;4.10;;;;;;;12.78;94.86;100865.30;5251693;55;1139027;-73
2022/06/02 06:19:28;;;;;;;3.73;3.43;;;;;;;13.03;93.89;100854.34;5251913;55;1138982;-73
2022/06/02 06:25:03;;;;;;;4.07;3.53;;;;;;;13.20;93.23;100860.95;5223855;56;1137028;-73
2022/06/02 06:30:59;;;;;;;4.93;3.53;;;;;;;13.49;93.76;100860.69;5216070;56;1136934;-73
2022/06/02 06:36:14;;;;;;;4.60;2.50;;;;;;;13.70;92.36;100868.67;5212298;56;1138996;-72
2022/06/02 06:41:33;;;;;;;3.47;3.27;;;;;;;13.88;90.95;100860.45;5069083;57;1139008;-73
2022/06/02 06:46:58;;;;;;;2.97;2.77;;;;;;;14.02;89.49;100871.23;5116993;57;1139036;-73
2022/06/02 06:52:14;;;;;;;4.07;2.57;;;;;;;14.05;87.00;100881.61;5115424;58;1139026;-72
2022/06/02 06:57:58;;;;;;;3.53;3.23;;;;;;;14.12;88.16;100880.57;5065942;58;1138985;-72
2022/06/02 07:03:25;;;;;;;2.87;2.67;;;;;;;14.22;85.63;100890.76;5056674;57;1138974;-72
2022/06/02 07:09:09;;;;;;;3.30;3.00;;;;;;;14.25;85.41;100888.68;5065036;57;1138966;-72
2022/06/02 07:14:31;;;;;;;2.70;2.50;;;;;;;14.40;84.89;100882.05;5164124;56;1139136;-72
2022/06/02 07:19:44;;;;;;;3.57;3.07;;;;;;;14.41;83.68;100889.55;5205195;56;1136901;-72
2022/06/02 07:25:09;;;;;;;3.33;3.03;;;;;;;14.45;83.28;100894.97;5194739;56;1136901;-72
2022/06/02 07:30:34;;;;;;;4.03;2.70;;;;;;;14.55;83.38;100888.33;5008750;58;1136854;-72
2022/06/02 07:36:13;;;;;;;6.37;2.80;;;;;;;14.49;83.04;100901.71;5126483;56;1137028;-72
2022/06/02 07:41:54;;;;;;;1.83;1.73;;;;;;;14.74;83.76;100900.38;5130015;57;1138976;-72
2022/06/02 07:47:11;;;;;;;1.57;1.53;;;;;;;15.12;82.19;100895.09;5215702;56;1139011;-72
2022/06/02 07:52:49;;;;;;;1.80;1.63;;;;;;;15.20;79.12;100899.74;5163029;56;1138962;-72
2022/06/02 07:58:05;;;;;;;2.00;1.90;;;;;;;15.18;74.39;100899.03;5131914;57;1138986;-72
2022/06/02 08:03:20;;;;;;;1.20;1.20;;;;;;;15.32;75.26;100899.95;5139200;56;1138933;-72
2022/06/02 08:08:51;;;;;;;2.50;1.83;;;;;;;15.68;74.01;100909.58;5161507;56;1138962;-72
2022/06/02 08:14:08;;;;;;;1.53;1.50;;;;;;;15.82;71.80;100918.47;5165785;56;1139168;-72
2022/06/02 08:19:36;;;;;;;4.83;2.03;;;;;;;15.84;74.26;100925.84;5249791;56;1139123;-72
2022/06/02 08:25:11;;;;;;;2.03;1.87;;;;;;;15.81;71.79;100932.80;5249712;56;1137057;-72
2022/06/02 08:30:36;;;;;;;1.63;1.53;;;;;;;15.67;71.37;100950.07;5193356;56;1136913;-72
2022/06/02 08:36:10;;;;;;;3.63;1.20;;;;;;;15.67;71.37;100950.07;5141788;57;1137102;-72
2022/06/02 08:41:50;;;;;;;1.33;1.30;;;;;;;15.54;71.65;100948.64;5162977;57;1134860;-72
2022/06/02 08:47:33;;;;;;;2.10;1.30;;;;;;;15.64;71.71;100951.68;5246023;56;1138972;-72
2022/06/02 08:53:14;;;;;;;1.60;1.50;;;;;;;15.68;70.61;100966.91;5249391;56;1139138;-72
2022/06/02 08:58:39;;;;;;;1.97;1.50;;;;;;;15.97;70.81;100962.39;5232392;56;1139042;-71
2022/06/02 09:04:23;;;;;;;1.30;1.20;;;;;;;16.12;68.45;100969.45;5251859;56;1139019;-73
2022/06/02 09:10:08;;;;;;;4.90;1.37;;;;;;;15.91;67.59;100980.78;5241601;56;1138958;-72
2022/06/02 09:15:58;;;;;;;5.67;1.60;;;;;;;15.79;69.21;100988.09;5151867;56;1136907;-73
2022/06/02 09:21:29;;;;;;;1.20;1.20;;;;;;;16.03;69.11;100991.18;5163003;56;1136956;-72
2022/06/02 09:27:19;;;;;;;1.53;1.43;;;;;;;16.35;68.76;100985.47;5163210;56;1138836;-73
2022/06/02 09:33:33;;;;;;;3.12;1.40;;;;;;;16.32;67.16;101000.95;5162851;57;1138993;-72
2022/06/02 09:38:36;;;;;;;1.00;1.00;;;;;;;16.55;68.44;101000.94;5161957;57;1139011;-72
2022/06/02 09:44:18;;;;;;;1.93;1.73;;;;;;;16.84;63.75;101000.86;5191079;56;1139081;-72
2022/06/02 09:49:58;;;;;;;3.30;1.53;;;;;;;17.04;66.30;101009.14;5249418;56;1139035;-72
2022/06/02 09:55:37;;;;;;;1.50;1.40;;;;;;;17.06;66.20;101018.34;5249388;56;1137237;-73
2022/06/02 10:01:26;;;;;;;1.47;1.43;;;;;;;16.91;67.24;101019.33;5217387;56;1136906;-72
2022/06/02 10:07:08;;;;;;;1.60;1.50;;;;;;;16.70;67.38;101022.22;5173056;56;1134840;-72
2022/06/02 10:13:01;;;;;;;1.08;1.08;;;;;;;17.01;69.03;101021.95;5211784;56;1138979;-72
2022/06/02 10:18:36;;;;;;;1.47;0.90;;;;;;;17.16;65.69;101032.48;5206818;56;1138991;-72
2022/06/02 10:24:35;;;;;;;2.37;1.37;;;;;;;16.83;63.87;101035.23;5206624;56;1139188;-72
2022/06/02 10:30:24;;;;;;;1.23;1.10;;;;;;;16.64;66.23;101033.50;5198986;56;1138992;-72
2022/06/02 10:35:53;;;;;;;1.03;1.03;;;;;;;16.85;64.70;101034.11;5143634;56;1136951;-72
2022/06/02 10:41:34;;;;;;;2.17;1.07;;;;;;;16.88;64.24;101038.32;5116433;57;1136939;-72
2022/06/02 10:46:53;;;;;;;1.30;1.20;;;;;;;16.87;62.88;101040.16;5138186;56;1135024;-72
2022/06/02 10:52:43;;;;;;;1.93;1.00;;;;;;;16.79;63.42;101037.39;5145302;57;1139055;-72
2022/06/02 10:58:09;;;;;;;1.13;1.00;;;;;;;17.09;62.44;101038.94;5030540;56;1139177;-72
2022/06/02 11:03:41;;;;;;;0.80;0.80;;;;;;;17.64;65.16;101031.38;5123851;56;1139098;-72
2022/06/02 11:09:23;;;;;;;0.80;0.80;;;;;;;18.01;63.06;101026.72;5097756;57;1138971;-72
2022/06/02 11:14:36;;;;;;;2.83;0.90;;;;;;;18.17;61.14;101028.69;5170549;57;1138978;-72
2022/06/02 11:20:15;;;;;;;1.20;1.20;;;;;;;17.90;59.68;101037.14;5150383;57;1139027;-73
2022/06/02 11:26:14;;;;;;;5.00;1.10;;;;;;;17.61;61.39;101047.20;5166524;57;1137055;-72
2022/06/02 11:31:43;;;;;;;1.40;0.90;;;;;;;17.38;59.95;101051.30;5158981;57;1136919;-72
2022/06/02 11:37:14;;;;;;;0.77;0.77;;;;;;;17.55;61.04;101050.49;5158405;57;1134902;-72
2022/06/02 11:42:43;;;;;;;1.23;1.00;;;;;;;18.07;59.27;101039.95;5165789;56;1139080;-72
2022/06/02 11:48:14;;;;;;;1.33;1.00;;;;;;;18.30;58.21;101032.28;5176541;56;1139024;-72
2022/06/02 11:53:57;;;;;;;1.87;1.30;;;;;;;18.46;60.58;101032.41;5195086;56;1138990;-73
2022/06/02 11:59:53;;;;;;;1.10;0.90;;;;;;;18.62;58.86;101029.86;5145598;56;1139131;-73
2022/06/02 12:05:32;;;;;;;1.90;1.00;;;;;;;18.97;53.27;101030.19;5129908;57;1139022;-73
2022/06/02 12:11:16;;;;;;;0.83;0.83;;;;;;;18.95;55.01;101042.91;5089871;56;1137115;-73
2022/06/02 12:17:03;;;;;;;1.03;1.03;;;;;;;18.69;54.58;101051.48;5131049;56;1136923;-72
2022/06/02 12:22:35;;;;;;;0.83;0.83;;;;;;;18.56;56.35;101054.55;5143014;56;1139336;-73
2022/06/02 12:28:10;;;;;;;1.30;1.20;;;;;;;18.51;55.33;101059.04;5110752;57;1138972;-72
2022/06/02 12:33:42;;;;;;;0.70;0.70;;;;;;;18.33;55.55;101058.27;5110694;57;1138994;-72
2022/06/02 12:39:14;;;;;;;3.77;1.00;;;;;;;18.21;56.20;101059.48;5122164;57;1138998;-73
2022/06/02 12:44:49;;;;;;;4.50;1.00;;;;;;;18.23;55.13;101065.53;5195985;57;1139007;-72
2022/06/02 12:50:10;;;;;;;3.02;1.05;;;;;;;18.20;55.96;101065.83;5073991;57;1138876;-73
2022/06/02 12:55:53;;;;;;;2.40;0.93;;;;;;;18.21;54.70;101060.82;5148892;57;1139190;-73
2022/06/02 13:01:13;;;;;;;0.70;0.70;;;;;;;18.15;54.61;101068.16;5204899;56;1136926;-73
2022/06/02 13:06:50;;;;;;;0.88;0.70;;;;;;;18.33;53.69;101066.30;5236313;56;1136891;-73
2022/06/02 13:12:45;;;;;;;2.87;1.57;;;;;;;18.60;52.90;101058.64;5161490;55;1136899;-73
2022/06/02 13:18:29;;;;;;;1.85;1.15;;;;;;;18.89;51.72;101063.67;5089783;58;1139011;-73
2022/06/02 13:24:18;;;;;;;2.63;0.80;;;;;;;19.15;50.29;101069.81;5050236;58;1138991;-73
2022/06/02 13:29:55;;;;;;;2.05;0.90;;;;;;;19.29;49.74;101075.91;5050725;57;1138948;-73
2022/06/02 13:35:38;;;;;;;5.15;0.50;;;;;;;19.17;48.43;101085.75;5018306;57;1139240;-73
2022/06/02 13:41:24;;;;;;;1.30;1.00;;;;;;;19.24;46.45;101084.95;5075873;57;1137155;-73
2022/06/02 13:46:47;;;;;;;0.72;0.50;;;;;;;19.36;45.76;101088.69;5172585;56;1136942;-73
2022/06/02 13:52:06;;;;;;;1.00;0.90;;;;;;;19.29;44.71;101098.70;5133335;57;1137008;-73
2022/06/02 13:57:44;;;;;;;0.70;0.70;;;;;;;18.97;50.59;101111.95;5196912;56;1136932;-73
2022/06/02 14:03:31;;;;;;;3.30;1.02;;;;;;;18.50;52.58;101123.48;5210843;56;1139073;-73
2022/06/02 14:08:57;;;;;;;1.92;1.10;;;;;;;18.05;55.45;101120.41;5018645;57;1139144;-72
2022/06/02 14:14:35;;;;;;;1.55;1.40;;;;;;;18.00;56.63;101119.21;4940245;58;1138977;-72
2022/06/02 14:20:07;;;;;;;2.55;0.57;;;;;;;18.24;55.95;101118.09;5034892;57;1139141;-72
2022/06/02 14:25:23;;;;;;;0.53;0.53;;;;;;;18.87;55.66;101112.56;4868586;60;1139169;-72
2022/06/02 14:30:34;;;;;;;0.66;0.66;;;;;;;19.39;51.12;101115.19;4917688;60;1139180;-73
2022/06/02 14:36:05;;;;;;;1.22;0.78;;;;;;;19.55;50.16;101112.60;4945194;59;1139021;-72
2022/06/02 14:41:31;;;;;;;2.00;0.93;;;;;;;19.57;50.32;101116.77;4959340;58;1137338;-72
2022/06/02 14:47:04;;;;;;;2.77;0.65;;;;;;;19.70;51.17;101112.31;5056655;57;1136881;-72
2022/06/02 14:52:23;;;;;;;0.98;0.93;;;;;;;19.82;49.78;101119.05;5203216;56;1136935;-72
2022/06/02 14:57:42;;;;;;;0.80;0.80;;;;;;;19.66;50.08;101117.16;5228350;56;1135071;-72
2022/06/02 15:03:11;;;;;;;1.57;1.00;;;;;;;19.31;51.48;101115.48;5185511;56;1138993;-72
2022/06/02 15:08:56;;;;;;;0.80;0.80;;;;;;;19.06;52.34;101118.21;5228539;56;1139001;-72
2022/06/02 15:14:36;;;;;;;1.52;1.42;;;;;;;19.05;53.51;101126.75;5228234;55;1138953;-72
2022/06/02 15:20:01;;;;;;;5.15;1.55;;;;;;;19.00;53.83;101122.36;5249487;55;1139089;-73
2022/06/02 15:25:30;;;;;;;1.98;1.00;;;;;;;18.93;54.01;101125.35;5237848;55;1139021;-72
2022/06/02 15:31:15;;;;;;;1.25;1.12;;;;;;;18.85;54.02;101126.13;5251466;55;1138938;-72
2022/06/02 15:36:34;;;;;;;;;;;;;;;18.77;53.95;101127.92;5232213;56;1136920;-72
2022/06/02 15:42:17;;;;;;;1.57;1.10;;;;;;;18.71;52.92;101123.17;5230995;56;974239;-71
2022/06/02 15:47:56;;;;;;;1.85;0.88;;;;;;;18.83;51.32;101128.12;5228015;55;1135022;-72
2022/06/02 15:53:31;;;;;;;2.45;0.80;;;;;;;18.75;50.97;101129.91;5224351;56;1138873;-71
2022/06/02 15:59:12;;;;;;;3.52;1.20;;;;;;;18.60;51.47;101129.14;5300226;55;1138919;-72
2022/06/02 16:04:56;;;;;;;1.65;0.95;;;;;;;18.57;52.03;101137.45;5317855;55;1138952;-71
2022/06/02 16:16:32;;;;;;;0.70;0.70;;;;;;;18.62;52.62;101142.39;5222309;56;1139003;-73
2022/06/02 16:22:04;;;;;;;0.68;0.68;;;;;;;18.79;51.96;101138.80;4929739;59;1136962;-73
2022/06/02 16:27:53;;;;;;;0.76;0.76;;;;;;;18.90;51.39;101137.22;5205077;56;1137092;-74
2022/06/02 16:33:20;;;;;;;1.26;1.16;;;;;;;18.92;51.28;101132.55;5180457;55;1139026;-74
2022/06/02 16:38:51;;;;;;;2.65;0.85;;;;;;;18.71;52.33;101139.25;5130503;56;1138949;-72
2022/06/02 16:44:33;;;;;;;4.47;0.90;;;;;;;18.62;52.79;101145.06;5194290;56;1138917;-72
2022/06/02 16:50:17;;;;;;;1.65;1.17;;;;;;;18.65;53.18;101143.89;5122872;57;1138443;-72
2022/06/02 16:55:55;;;;;;;1.65;1.50;;;;;;;18.79;51.53;101154.07;5121598;57;1139115;-72
2022/06/02 17:01:35;;;;;;;1.90;1.40;;;;;;;18.92;52.11;101148.63;5152847;57;1138961;-73
2022/06/02 17:07:25;;;;;;;1.60;1.50;;;;;;;19.10;51.48;101149.89;5118904;57;1136896;-73
2022/06/02 17:12:55;;;;;;;3.75;1.50;;;;;;;19.22;52.43;101148.64;5186700;57;1136981;-72
2022/06/02 17:18:24;;;;;;;2.45;1.35;;;;;;;19.35;51.64;101156.73;5013999;57;1134968;-73
2022/06/02 17:23:55;;;;;;;0.80;0.80;;;;;;;19.22;49.95;101154.00;5109544;57;1139182;-73
2022/06/02 17:29:37;;;;;;;0.90;0.90;;;;;;;19.02;48.86;101165.09;5109569;58;1139118;-73
2022/06/02 17:35:19;;;;;;;0.85;0.80;;;;;;;19.02;48.86;101165.09;5150065;57;1139310;-72
2022/06/02 17:40:56;;;;;;;0.80;0.80;;;;;;;18.89;50.01;101166.86;5180397;56;1138930;-73
2022/06/02 17:46:11;;;;;;;1.77;1.67;;;;;;;18.78;50.99;101169.30;5161313;56;1138939;-74
2022/06/02 17:51:58;;;;;;;2.37;1.60;;;;;;;18.71;51.40;101170.07;5161696;57;1139095;-74
2022/06/02 17:57:14;;;;;;;2.42;2.22;;;;;;;18.66;52.14;101165.66;5008651;57;1136923;-72
2022/06/02 18:02:41;;;;;;;10.93;5.03;;;;;;;18.53;53.37;101153.98;5046009;57;1137194;-73
2022/06/02 18:08:23;;;;;;;7.35;3.72;;;;;;;18.53;53.37;101153.98;5064484;58;1139282;-73
2022/06/02 18:14:21;;;;;;;8.50;2.93;;;;;;;18.55;53.29;101162.22;5078961;56;1138901;-72
2022/06/02 18:19:46;;;;;;;9.70;4.00;;;;;;;18.49;53.42;101169.52;5126428;56;1138832;-72
2022/06/02 18:25:25;;;;;;;9.18;3.80;;;;;;;18.45;53.93;101174.86;5115840;57;1139160;-72
2022/06/02 18:30:46;;;;;;;4.70;2.45;;;;;;;18.42;54.35;101182.36;5039553;58;1139294;-73
2022/06/02 18:36:27;;;;;;;3.97;1.70;;;;;;;18.38;54.79;101190.34;4993757;58;1138931;-73
2022/06/02 18:42:08;;;;;;;3.37;2.20;;;;;;;18.30;54.96;101192.46;5016887;58;1139228;-73
2022/06/02 18:47:45;;;;;;;5.07;2.10;;;;;;;18.23;55.42;101197.57;5082475;57;1136819;-72
2022/06/02 18:52:59;;;;;;;12.18;3.37;;;;;;;18.13;55.78;101208.02;5148538;55;1137083;-72
2022/06/02 18:58:43;;;;;;;3.33;2.10;;;;;;;18.03;56.18;101209.89;5193143;56;1138849;-72
2022/06/02 19:04:25;;;;;;;2.30;2.10;;;;;;;18.02;56.93;101219.78;5123389;56;1138910;-72
2022/06/02 19:15:38;;;;;;;6.30;2.90;;;;;;;18.02;57.65;101222.46;5126142;56;1138998;-72
2022/06/02 19:21:04;;;;;;;8.90;3.13;;;;;;;18.00;57.83;101228.45;5129248;57;1138911;-72
2022/06/02 19:26:22;;;;;;;10.47;6.17;;;;;;;17.96;58.28;101240.94;5097567;57;1138949;-72
2022/06/02 19:31:38;;;;;;;26.57;9.90;;;;;;;17.85;58.57;101246.84;5136396;55;1141086;-72
2022/06/02 19:37:04;;;;;;;22.20;10.63;;;;;;;17.75;58.67;101255.39;5053627;57;1141041;-72
2022/06/02 19:42:35;;;;;;;59.60;29.95;;;;;;;17.62;58.79;101254.01;4998823;57;1141052;-72
2022/06/02 19:48:07;;;;;;;114.47;55.03;;;;;;;17.40;59.16;101260.08;5156398;57;1141101;-72
2022/06/02 19:53:23;;;;;;;105.17;52.20;;;;;;;17.25;60.40;101265.53;5055496;57;1143170;-73
2022/06/02 19:59:09;;;;;;;35.53;16.23;;;;;;;17.18;61.16;101275.95;4945734;58;1143458;-73
2022/06/02 20:04:28;;;;;;;10.43;6.27;;;;;;;17.09;61.61;101276.81;5009148;58;1143421;-74
2022/06/02 20:09:47;;;;;;;24.60;10.37;;;;;;;16.99;62.09;101277.79;5038906;58;1141127;-72
2022/06/02 20:15:03;;;;;;;21.20;8.50;;;;;;;16.86;62.25;101279.42;5059655;58;1143119;-72
2022/06/02 20:20:30;;;;;;;20.10;7.63;;;;;;;16.73;62.65;101288.20;5021488;58;1141051;-72
2022/06/02 20:25:42;;;;;;;21.77;7.80;;;;;;;16.61;63.10;101286.62;4876579;59;1141101;-72
2022/06/02 20:30:55;;;;;;;41.87;27.97;;;;;;;16.46;63.58;101287.52;4952955;58;1141098;-72
2022/06/02 20:36:37;;;;;;;32.97;16.70;;;;;;;16.38;64.31;101292.69;5088849;56;1143286;-73
2022/06/02 20:42:32;;;;;;;20.97;11.17;;;;;;;16.28;64.44;101290.02;5178834;56;1143283;-72
2022/06/02 20:47:45;;;;;;;33.40;13.40;;;;;;;16.09;64.59;101297.47;5138412;56;1141040;-71
2022/06/02 20:53:07;;;;;;;19.48;10.50;;;;;;;15.99;65.33;101299.76;5099864;57;1141262;-72
2022/06/02 20:58:20;;;;;;;14.03;8.10;;;;;;;15.85;65.56;101306.30;5217051;56;1141049;-71
2022/06/02 21:03:46;;;;;;;12.07;5.73;;;;;;;15.66;65.84;101309.72;5172284;56;1138962;-72
2022/06/02 21:09:05;;;;;;;6.47;3.83;;;;;;;15.57;66.49;101318.52;5206174;56;1136952;-73
2022/06/02 21:14:14;;;;;;;10.40;4.50;;;;;;;15.53;67.22;101318.88;5216331;56;1139047;-73
2022/06/02 21:19:30;;;;;;;13.87;8.23;;;;;;;15.48;67.47;101328.59;5215933;56;1141074;-73
2022/06/02 21:24:36;;;;;;;13.33;8.13;;;;;;;15.45;67.66;101330.17;5214894;56;1141007;-71
2022/06/02 21:29:51;;;;;;;11.80;7.57;;;;;;;15.40;67.60;101335.08;5167361;56;1141237;-71
2022/06/02 21:35:01;;;;;;;11.03;6.63;;;;;;;15.13;67.42;101334.22;5151552;56;1141066;-71
2022/06/02 21:40:21;;;;;;;9.57;6.97;;;;;;;14.94;68.20;101342.08;5084197;57;1141225;-71
2022/06/02 21:45:30;;;;;;;5.80;3.57;;;;;;;14.87;68.68;101345.72;5111273;57;1138974;-71
2022/06/02 21:50:46;;;;;;;2.60;2.40;;;;;;;14.86;69.12;101338.70;5205510;57;1139029;-71
2022/06/02 21:55:56;;;;;;;11.70;4.60;;;;;;;14.92;69.35;101341.36;5018348;58;1139345;-71
2022/06/02 22:01:09;;;;;;;8.53;5.43;;;;;;;14.93;69.36;101343.05;5035368;57;1140964;-73
2022/06/02 22:06:39;;;;;;;8.30;5.27;;;;;;;14.82;69.02;101350.57;5149913;57;1139080;-73
2022/06/02 22:11:49;;;;;;;8.60;5.77;;;;;;;14.71;69.33;101350.12;5205586;57;1138891;-73
2022/06/02 22:17:08;;;;;;;13.63;6.20;;;;;;;14.63;69.67;101350.41;5205541;57;1139283;-73
2022/06/02 22:22:38;;;;;;;14.70;7.00;;;;;;;14.54;69.85;101348.47;5178723;57;1140987;-73
2022/06/02 22:28:21;;;;;;;21.97;9.17;;;;;;;14.43;69.83;101354.19;5083960;56;1138974;-73
2022/06/02 22:33:40;;;;;;;20.57;9.47;;;;;;;14.32;69.74;101351.52;4983605;58;1139006;-73
2022/06/02 22:39:24;;;;;;;17.63;8.77;;;;;;;14.18;69.62;101352.26;5056074;57;1139246;-73
2022/06/02 22:44:58;;;;;;;22.00;9.13;;;;;;;14.03;69.49;101343.20;5125538;57;1141050;-73
2022/06/02 22:50:23;;;;;;;22.40;10.20;;;;;;;13.91;69.79;101346.80;5137305;56;1141535;-73
2022/06/02 22:56:00;;;;;;;18.97;9.03;;;;;;;13.84;70.48;101352.25;5117475;57;1143095;-73
2022/06/02 23:01:26;;;;;;;20.73;10.30;;;;;;;13.78;70.51;101360.69;5028523;57;1141062;-73
2022/06/02 23:06:56;;;;;;;8.03;5.27;;;;;;;13.76;70.79;101361.28;5110730;57;1143364;-73
2022/06/02 23:12:23;;;;;;;5.60;3.87;;;;;;;13.78;71.14;101367.33;5127980;57;1138936;-73
2022/06/02 23:18:21;;;;;;;4.13;2.60;;;;;;;13.78;71.32;101366.00;5127975;57;1139110;-73
2022/06/02 23:24:04;;;;;;;3.40;3.13;;;;;;;13.76;71.54;101369.27;5126795;57;1137329;-73
2022/06/02 23:29:26;;;;;;;9.10;5.27;;;;;;;13.67;71.49;101366.00;5094896;57;1137148;-73
2022/06/02 23:34:58;;;;;;;23.93;11.13;;;;;;;13.55;71.21;101370.45;5044724;58;1138918;-73
2022/06/02 23:40:29;;;;;;;29.40;12.80;;;;;;;13.42;71.12;101379.48;5039442;56;1142523;-73
2022/06/02 23:46:09;;;;;;;29.93;12.80;;;;;;;13.29;71.31;101379.56;5195257;56;1143220;-73
2022/06/02 23:51:53;;;;;;;19.27;7.70;;;;;;;13.24;71.65;101384.36;5180255;56;1143131;-73
2022/06/02 23:57:53;;;;;;;10.30;5.77;;;;;;;13.17;71.63;101380.45;5234289;56;1141388;-73
